Terminal Aerodrome Forecast
Issued by NWS

Home | Current Version | Previous Version | Text Only | Print | Product List | Glossary On
Versions: 1 2 3 4 5 6 7 8 9 10 11 12 13 14 15 16 17 18 19 20 21 22 23 24 25 26 27 28 29 30 31 32 33 34 35 36 37 38
500
FTUS43 KDLH 180532
TAFBRD
TAF
KBRD 180532Z 1806/1906 18017G26KT P6SM SCT050 SCT100 WS020/20040KT
     FM180700 18012G22KT P6SM VCTS SCT030CB BKN060 WS020/20040KT
     FM180900 19012G22KT 4SM SHRA BR VCTS SCT020CB OVC050
      WS020/21040KT
     FM181100 18013G23KT 6SM SHRA VCTS SCT035CB OVC040
     FM181500 19015G27KT P6SM SCT015 BKN020
     FM181700 22014G22KT P6SM FEW090=

USA.gov is the U.S. government's official web portal to all federal, state and local government web resources and services.